createdAt,value
2018-12-17T00:02:00.418Z,3.83
2018-12-17T00:04:31.589Z,4.03
2018-12-17T00:07:02.140Z,4.20
2018-12-17T00:09:30.631Z,4.87
2018-12-17T00:11:59.096Z,4.87
2018-12-17T00:14:27.578Z,5.10
2018-12-17T00:16:56.041Z,4.97
2018-12-17T00:19:24.751Z,4.63
2018-12-17T00:21:53.224Z,4.37
2018-12-17T00:24:21.925Z,4.40
2018-12-17T00:26:51.397Z,4.40
2018-12-17T00:29:19.892Z,4.53
2018-12-17T00:31:48.360Z,4.50
2018-12-17T00:34:17.229Z,4.30
2018-12-17T00:36:45.943Z,4.23
2018-12-17T00:39:14.644Z,4.47
2018-12-17T00:41:43.133Z,4.67
2018-12-17T00:44:11.572Z,3.90
2018-12-17T00:46:40.064Z,4.30
2018-12-17T00:49:08.547Z,4.20
2018-12-17T00:51:37.265Z,4.60
2018-12-17T00:54:05.708Z,3.80
2018-12-17T00:56:34.440Z,4.07
2018-12-17T00:59:03.311Z,3.77
2018-12-17T01:01:31.978Z,3.43
2018-12-17T01:04:00.511Z,3.70
2018-12-17T01:06:29.355Z,4.17
2018-12-17T01:08:58.457Z,3.50
2018-12-17T01:11:26.925Z,3.20
2018-12-17T01:13:55.607Z,3.53
2018-12-17T01:16:24.080Z,3.40
2018-12-17T01:18:52.579Z,3.33
2018-12-17T01:21:21.390Z,3.63
2018-12-17T01:23:50.430Z,3.43
2018-12-17T01:26:19.664Z,3.10
2018-12-17T01:28:48.682Z,3.50
2018-12-17T01:31:17.217Z,3.60
2018-12-17T01:33:45.942Z,3.67
2018-12-17T01:36:14.598Z,3.60
2018-12-17T01:38:44.312Z,3.87
2018-12-17T01:41:13.024Z,3.77
2018-12-17T01:43:41.471Z,3.73
2018-12-17T01:46:09.952Z,3.60
2018-12-17T01:48:38.446Z,3.00
2018-12-17T01:51:06.917Z,3.40
2018-12-17T01:53:35.377Z,3.60
2018-12-17T01:56:04.111Z,3.30
2018-12-17T01:58:32.560Z,3.43
2018-12-17T02:01:01.256Z,2.83
2018-12-17T02:03:30.004Z,3.50
2018-12-17T02:05:58.986Z,3.70
2018-12-17T02:08:27.638Z,3.53
2018-12-17T02:10:56.560Z,3.23
2018-12-17T02:13:25.086Z,3.10
2018-12-17T02:15:53.545Z,2.80
2018-12-17T02:18:22.068Z,3.60
2018-12-17T02:20:50.740Z,3.23
2018-12-17T02:23:19.199Z,2.93
2018-12-17T02:25:47.701Z,3.37
2018-12-17T02:28:16.365Z,3.10
2018-12-17T02:30:45.067Z,3.60
2018-12-17T02:33:13.936Z,3.20
2018-12-17T02:35:42.646Z,3.03
2018-12-17T02:38:11.339Z,3.53
2018-12-17T02:40:40.045Z,3.70
2018-12-17T02:43:08.896Z,3.30
2018-12-17T02:45:38.610Z,3.17
2018-12-17T02:48:07.313Z,3.90
2018-12-17T02:50:35.780Z,3.77
2018-12-17T02:53:04.496Z,3.73
2018-12-17T02:55:33.156Z,3.90
2018-12-17T02:58:01.611Z,3.80
2018-12-17T03:00:30.094Z,3.43
2018-12-17T03:02:58.633Z,3.53
2018-12-17T03:05:27.483Z,3.47
2018-12-17T03:07:55.966Z,3.37
2018-12-17T03:10:24.444Z,3.60
2018-12-17T03:12:52.921Z,3.60
2018-12-17T03:15:21.974Z,3.10
2018-12-17T03:17:50.724Z,3.30
2018-12-17T03:20:19.186Z,3.00
2018-12-17T03:22:47.644Z,3.83
2018-12-17T03:25:16.212Z,3.87
2018-12-17T03:27:44.919Z,4.30
2018-12-17T03:30:13.504Z,4.23
2018-12-17T03:32:42.225Z,4.63
2018-12-17T03:35:10.922Z,4.10
2018-12-17T03:37:39.576Z,4.50
2018-12-17T03:40:07.936Z,5.77
2018-12-17T03:42:36.310Z,5.50
2018-12-17T03:48:00.543Z,5.30
2018-12-17T03:50:29.214Z,4.60
2018-12-17T03:52:57.902Z,4.93
2018-12-17T03:55:26.615Z,4.10
2018-12-17T03:57:55.493Z,3.87
2018-12-17T04:00:24.770Z,4.27
2018-12-17T04:02:53.278Z,4.03
2018-12-17T04:05:21.941Z,3.77
2018-12-17T04:07:50.627Z,3.80
2018-12-17T04:10:19.344Z,4.53
2018-12-17T04:12:47.929Z,5.20
2018-12-17T04:15:17.143Z,4.20
2018-12-17T04:17:45.792Z,4.53
2018-12-17T04:20:14.480Z,4.27
2018-12-17T04:22:43.126Z,4.30
2018-12-17T04:25:11.856Z,6.47
2018-12-17T04:27:40.298Z,6.67
2018-12-17T04:30:09.044Z,6.67
2018-12-17T04:32:37.494Z,5.53
2018-12-17T04:35:05.957Z,5.37
2018-12-17T04:37:34.655Z,4.67
2018-12-17T04:40:03.284Z,4.27
2018-12-17T04:42:31.793Z,4.10
2018-12-17T04:45:00.500Z,3.40
2018-12-17T04:47:29.223Z,3.40
2018-12-17T04:49:57.714Z,3.30
2018-12-17T04:52:26.563Z,4.10
2018-12-17T04:54:55.456Z,3.77
2018-12-17T04:57:23.779Z,3.93
2018-12-17T04:59:52.623Z,4.40
2018-12-17T05:02:21.701Z,6.30
2018-12-17T05:04:50.785Z,6.00
2018-12-17T05:07:19.894Z,5.37
2018-12-17T05:09:49.170Z,6.23
2018-12-17T05:12:18.265Z,5.97
2018-12-17T05:14:48.144Z,5.47
2018-12-17T05:17:17.313Z,6.47
2018-12-17T05:19:46.542Z,6.17
2018-12-17T05:22:15.511Z,5.20
2018-12-17T05:24:45.421Z,6.30
2018-12-17T05:27:14.695Z,6.07
2018-12-17T05:29:43.782Z,5.73
2018-12-17T05:32:13.312Z,5.83
2018-12-17T05:34:42.383Z,5.97
2018-12-17T05:37:11.476Z,5.40
2018-12-17T05:39:40.341Z,4.70
2018-12-17T05:42:09.627Z,5.23
2018-12-17T05:44:38.800Z,5.03
2018-12-17T05:47:08.845Z,5.30
2018-12-17T05:49:37.995Z,7.90
2018-12-17T05:52:07.074Z,10.20
2018-12-17T05:54:36.146Z,9.77
2018-12-17T05:57:05.278Z,10.57
2018-12-17T05:59:34.066Z,14.57
2018-12-17T06:02:04.384Z,16.00
2018-12-17T06:04:33.533Z,11.50
2018-12-17T06:07:02.567Z,11.33
2018-12-17T06:09:31.612Z,10.73
2018-12-17T06:12:00.696Z,10.23
2018-12-17T06:14:29.763Z,8.10
2018-12-17T06:16:58.947Z,8.10
2018-12-17T06:19:27.462Z,7.57
2018-12-17T06:21:55.922Z,7.80
2018-12-17T06:24:25.429Z,6.90
2018-12-17T06:26:54.481Z,8.47
2018-12-17T06:29:22.909Z,9.57
2018-12-17T06:31:53.038Z,8.67
2018-12-17T06:34:23.786Z,8.93
2018-12-17T06:36:53.971Z,8.57
2018-12-17T06:39:24.443Z,8.67
2018-12-17T06:41:55.740Z,15.80
2018-12-17T06:44:25.641Z,18.87
2018-12-17T06:47:00.207Z,23.00
2018-12-17T06:49:31.263Z,16.43
2018-12-17T06:52:01.831Z,17.30
2018-12-17T06:54:30.474Z,15.17
2018-12-17T06:56:59.938Z,14.53
2018-12-17T06:59:29.805Z,13.23
2018-12-17T07:01:59.668Z,12.40
2018-12-17T07:04:28.849Z,10.33
2018-12-17T07:06:57.889Z,8.17
2018-12-17T07:09:26.682Z,6.87
2018-12-17T07:11:55.838Z,8.13
2018-12-17T07:14:25.236Z,7.50
2018-12-17T07:16:54.171Z,7.40
2018-12-17T07:19:23.070Z,9.47
2018-12-17T07:21:51.889Z,16.67
2018-12-17T07:24:20.617Z,14.23
2018-12-17T07:26:49.361Z,10.77
2018-12-17T07:29:17.779Z,10.43
2018-12-17T07:31:46.255Z,10.90
2018-12-17T07:34:14.985Z,11.80
2018-12-17T07:36:43.649Z,12.07
2018-12-17T07:39:12.341Z,12.00
2018-12-17T07:41:41.076Z,9.00
2018-12-17T07:44:09.710Z,13.40
2018-12-17T07:46:38.962Z,12.63
2018-12-17T07:49:07.490Z,12.40
2018-12-17T07:51:36.320Z,10.30
2018-12-17T07:54:04.862Z,11.57
2018-12-17T07:56:33.710Z,11.40
2018-12-17T07:59:03.660Z,12.50
2018-12-17T08:01:32.551Z,10.87
2018-12-17T08:04:01.254Z,11.30
2018-12-17T08:06:30.113Z,10.57
2018-12-17T08:08:58.804Z,9.40
2018-12-17T08:11:27.280Z,8.10
2018-12-17T08:13:55.979Z,7.77
2018-12-17T08:16:24.455Z,9.53
2018-12-17T08:18:52.956Z,8.57
2018-12-17T08:21:21.809Z,8.97
2018-12-17T08:23:50.497Z,10.23
2018-12-17T08:26:19.225Z,9.43
2018-12-17T08:28:48.091Z,8.83
2018-12-17T08:31:16.770Z,8.20
2018-12-17T08:33:45.483Z,8.97
2018-12-17T08:36:14.133Z,9.63
2018-12-17T08:38:43.244Z,12.57
2018-12-17T08:41:12.277Z,12.13
2018-12-17T08:43:40.819Z,17.83
2018-12-17T08:46:09.265Z,19.97
2018-12-17T08:48:37.797Z,13.03
2018-12-17T08:51:06.070Z,12.70
2018-12-17T08:53:34.713Z,14.80
2018-12-17T08:56:03.443Z,15.07
2018-12-17T08:58:31.932Z,15.00
2018-12-17T09:01:00.806Z,13.20
2018-12-17T09:03:29.695Z,12.30
2018-12-17T09:05:58.585Z,13.50
2018-12-17T09:08:27.269Z,12.47
2018-12-17T09:10:56.183Z,12.77
2018-12-17T09:13:24.816Z,13.37
2018-12-17T09:15:52.802Z,23.70
2018-12-17T09:18:21.420Z,19.97
2018-12-17T09:20:50.293Z,19.07
2018-12-17T09:23:18.887Z,15.87
2018-12-17T09:25:47.460Z,17.00
2018-12-17T09:28:15.446Z,17.50
2018-12-17T09:30:43.447Z,15.37
2018-12-17T09:33:11.511Z,13.30
2018-12-17T09:35:39.577Z,13.37
2018-12-17T09:38:07.543Z,12.77
2018-12-17T09:40:36.301Z,13.70
2018-12-17T09:43:05.187Z,14.57
2018-12-17T09:45:33.976Z,15.93
2018-12-17T09:48:03.489Z,14.83
2018-12-17T09:50:33.287Z,12.73
2018-12-17T09:53:02.172Z,11.73
2018-12-17T09:55:31.004Z,14.43
2018-12-17T09:57:59.789Z,12.37
2018-12-17T10:00:28.431Z,13.63
2018-12-17T10:02:57.127Z,12.40
2018-12-17T10:05:26.750Z,15.73
2018-12-17T10:07:55.272Z,14.43
2018-12-17T10:10:23.806Z,13.83
2018-12-17T10:12:52.466Z,13.97
2018-12-17T10:15:21.130Z,15.13
2018-12-17T10:17:49.874Z,13.67
2018-12-17T10:20:18.453Z,11.73
2018-12-17T10:22:47.227Z,10.17
2018-12-17T10:25:15.929Z,9.67
2018-12-17T10:27:44.566Z,9.60
2018-12-17T10:30:13.479Z,8.43
2018-12-17T10:32:42.569Z,9.60
2018-12-17T10:35:16.127Z,9.43
2018-12-17T10:37:44.670Z,10.63
2018-12-17T10:40:13.680Z,10.80
2018-12-17T10:42:42.201Z,9.10
2018-12-17T10:45:10.929Z,10.60
2018-12-17T10:47:39.780Z,10.40
2018-12-17T10:50:08.819Z,9.23
2018-12-17T10:52:37.359Z,9.33
2018-12-17T10:55:06.283Z,8.90
2018-12-17T10:57:35.158Z,8.23
2018-12-17T11:00:04.202Z,9.53
2018-12-17T11:02:33.640Z,8.53
2018-12-17T11:05:09.613Z,9.40
2018-12-17T11:07:38.481Z,9.30
2018-12-17T11:10:07.978Z,8.40
2018-12-17T11:12:36.517Z,7.67
2018-12-17T11:15:06.749Z,7.70
2018-12-17T11:17:35.266Z,7.50
2018-12-17T11:20:04.927Z,7.03
2018-12-17T11:22:33.686Z,6.77
2018-12-17T11:25:02.165Z,6.40
2018-12-17T11:27:30.882Z,6.20
2018-12-17T11:29:59.779Z,6.50
2018-12-17T11:32:28.447Z,5.57
2018-12-17T11:34:57.877Z,5.80
2018-12-17T11:37:25.903Z,5.30
2018-12-17T11:39:54.511Z,5.37
2018-12-17T11:42:23.173Z,5.93
2018-12-17T11:44:51.850Z,5.43
2018-12-17T11:47:20.533Z,5.13
2018-12-17T11:49:50.233Z,5.30
2018-12-17T11:52:18.739Z,5.43
2018-12-17T11:54:47.181Z,4.63
2018-12-17T11:57:31.437Z,4.53
2018-12-17T12:00:01.239Z,4.70
2018-12-17T12:02:29.851Z,4.30
2018-12-17T12:04:58.427Z,4.50
2018-12-17T12:07:27.213Z,4.83
2018-12-17T12:09:55.742Z,4.60
2018-12-17T12:12:25.547Z,4.23
2018-12-17T12:14:54.652Z,4.43
2018-12-17T12:17:23.172Z,4.33
2018-12-17T12:19:52.428Z,3.83
2018-12-17T12:22:21.169Z,4.40
2018-12-17T12:25:06.830Z,5.00
2018-12-17T12:27:35.318Z,4.57
2018-12-17T12:30:09.218Z,4.80
2018-12-17T12:32:38.539Z,4.80
2018-12-17T12:35:15.003Z,4.87
2018-12-17T12:37:44.414Z,4.60
2018-12-17T12:40:13.129Z,4.10
2018-12-17T12:42:41.971Z,4.40
2018-12-17T12:45:16.233Z,4.47
2018-12-17T12:47:44.716Z,4.37
2018-12-17T12:50:19.807Z,3.87
2018-12-17T12:52:50.237Z,4.10
2018-12-17T12:55:22.554Z,4.37
2018-12-17T12:57:51.917Z,17.17
2018-12-17T13:00:28.034Z,5.07
2018-12-17T13:02:57.271Z,4.57
2018-12-17T13:05:30.370Z,4.40
2018-12-17T13:07:59.162Z,4.77
2018-12-17T13:10:32.504Z,4.00
2018-12-17T13:13:01.239Z,4.30
2018-12-17T13:15:33.483Z,4.00
2018-12-17T13:18:02.289Z,4.53
2018-12-17T13:20:32.073Z,5.20
2018-12-17T13:23:00.701Z,3.90
2018-12-17T13:25:36.667Z,4.20
2018-12-17T13:28:06.084Z,4.00
2018-12-17T13:30:34.747Z,3.60
2018-12-17T13:33:03.437Z,4.03
2018-12-17T13:35:32.345Z,4.03
2018-12-17T13:38:01.246Z,4.80
2018-12-17T13:40:32.154Z,4.27
2018-12-17T13:43:00.152Z,4.00
2018-12-17T13:45:28.184Z,3.93
2018-12-17T13:47:57.598Z,4.13
2018-12-17T13:50:35.408Z,4.40
2018-12-17T13:53:09.030Z,4.30
2018-12-17T13:55:37.587Z,4.33
2018-12-17T13:58:06.483Z,4.37
2018-12-17T14:00:35.388Z,3.77
2018-12-17T14:03:04.464Z,4.13
2018-12-17T14:05:33.419Z,4.17
2018-12-17T14:08:02.289Z,4.47
2018-12-17T14:10:36.522Z,4.47
2018-12-17T14:13:05.362Z,4.63
2018-12-17T14:15:39.963Z,4.17
2018-12-17T14:18:14.122Z,4.23
2018-12-17T14:20:48.236Z,4.00
2018-12-17T14:23:17.087Z,4.27
2018-12-17T14:25:45.992Z,4.03
2018-12-17T14:28:15.454Z,4.03
2018-12-17T14:30:44.189Z,4.30
2018-12-17T14:33:12.855Z,4.00
2018-12-17T14:35:46.034Z,3.93
2018-12-17T14:38:14.041Z,4.20
2018-12-17T14:40:42.564Z,3.97
2018-12-17T14:43:11.290Z,4.17
2018-12-17T14:45:39.958Z,4.60
2018-12-17T14:48:08.443Z,4.07
2018-12-17T14:50:37.357Z,4.53
2018-12-17T14:53:06.213Z,4.23
2018-12-17T14:55:35.125Z,4.23
2018-12-17T14:58:03.812Z,4.60
2018-12-17T15:00:32.701Z,4.40
2018-12-17T15:03:01.570Z,3.80
2018-12-17T15:05:30.490Z,4.20
2018-12-17T15:07:59.125Z,3.90
2018-12-17T15:10:27.634Z,3.67
2018-12-17T15:12:56.454Z,4.40
2018-12-17T15:15:25.006Z,4.03
2018-12-17T15:17:53.886Z,3.57
2018-12-17T15:20:22.607Z,3.70
2018-12-17T15:22:51.249Z,4.40
2018-12-17T15:25:19.948Z,3.87
2018-12-17T15:27:48.900Z,4.30
2018-12-17T15:30:17.751Z,3.67
2018-12-17T15:32:46.624Z,3.70
2018-12-17T15:35:15.320Z,4.03
2018-12-17T15:37:43.324Z,3.70
2018-12-17T15:40:11.338Z,4.00
2018-12-17T15:42:40.966Z,4.00
2018-12-17T15:45:10.057Z,3.63
2018-12-17T15:47:38.723Z,3.57
2018-12-17T15:50:08.023Z,4.00
2018-12-17T15:52:36.722Z,3.83
2018-12-17T15:55:09.583Z,4.00
2018-12-17T15:57:39.192Z,3.87
2018-12-17T16:00:10.069Z,3.90
2018-12-17T16:02:38.812Z,4.70
2018-12-17T16:05:07.519Z,4.20
2018-12-17T16:07:36.448Z,4.03
2018-12-17T16:10:05.585Z,4.30
2018-12-17T16:12:34.393Z,4.40
2018-12-17T16:15:03.225Z,4.23
2018-12-17T16:17:31.765Z,4.20
2018-12-17T16:20:00.231Z,3.87
2018-12-17T16:22:28.938Z,4.10
2018-12-17T16:24:57.617Z,4.13
2018-12-17T16:27:26.087Z,4.83
2018-12-17T16:29:56.273Z,4.43
2018-12-17T16:32:25.801Z,4.17
2018-12-17T16:34:54.408Z,4.03
2018-12-17T16:37:25.745Z,4.47
2018-12-17T16:39:54.432Z,4.40
2018-12-17T16:42:23.765Z,4.27
2018-12-17T16:44:52.438Z,3.70
2018-12-17T16:47:22.427Z,4.37
2018-12-17T16:49:51.179Z,4.30
2018-12-17T16:52:20.122Z,4.57
2018-12-17T16:54:48.235Z,4.63
2018-12-17T16:57:18.107Z,4.73
2018-12-17T16:59:46.817Z,4.83
2018-12-17T17:02:15.490Z,5.00
2018-12-17T17:04:44.355Z,5.20
2018-12-17T17:07:12.956Z,5.60
2018-12-17T17:09:41.727Z,4.93
2018-12-17T17:12:09.718Z,5.23
2018-12-17T17:14:38.649Z,5.90
2018-12-17T17:17:07.156Z,5.40
2018-12-17T17:19:35.856Z,5.23
2018-12-17T17:22:05.373Z,5.80
2018-12-17T17:24:34.240Z,5.27
2018-12-17T17:27:02.932Z,5.40
2018-12-17T17:29:32.644Z,5.33
2018-12-17T17:32:01.795Z,6.17
2018-12-17T17:34:30.415Z,5.83
2018-12-17T17:36:59.369Z,6.50
2018-12-17T17:39:27.999Z,6.13
2018-12-17T17:41:56.448Z,6.80
2018-12-17T17:44:25.212Z,5.87
2018-12-17T17:46:54.070Z,6.10
2018-12-17T17:49:22.541Z,6.40
2018-12-17T17:51:51.461Z,6.67
2018-12-17T17:54:20.312Z,6.17
2018-12-17T17:56:48.792Z,6.63
2018-12-17T17:59:17.280Z,6.50
2018-12-17T18:01:45.747Z,7.27
2018-12-17T18:04:13.894Z,6.80
2018-12-17T18:06:41.903Z,7.27
2018-12-17T18:09:12.845Z,7.60
2018-12-17T18:11:41.548Z,6.93
2018-12-17T18:14:10.267Z,13.97
2018-12-17T18:16:39.588Z,10.47
2018-12-17T18:19:09.337Z,10.03
2018-12-17T18:21:37.876Z,7.77
2018-12-17T18:24:07.421Z,6.27
2018-12-17T18:26:36.151Z,7.40
2018-12-17T18:29:05.806Z,11.27
2018-12-17T18:31:34.516Z,9.00
2018-12-17T18:34:04.861Z,8.03
2018-12-17T18:36:39.582Z,7.10
2018-12-17T18:39:12.041Z,8.00
2018-12-17T18:41:41.279Z,7.80
2018-12-17T18:44:09.992Z,7.57
2018-12-17T18:46:38.871Z,7.33
2018-12-17T18:49:08.926Z,9.93
2018-12-17T18:51:37.789Z,7.33
2018-12-17T18:54:06.812Z,11.13
2018-12-17T18:56:36.062Z,9.77
2018-12-17T18:59:04.622Z,8.70
2018-12-17T19:01:35.043Z,7.07
2018-12-17T19:04:03.832Z,7.67
2018-12-17T19:06:32.675Z,7.27
2018-12-17T19:09:01.201Z,7.53
2018-12-17T19:11:30.915Z,8.23
2018-12-17T19:13:59.555Z,8.23
2018-12-17T19:16:28.105Z,7.90
2018-12-17T19:18:56.925Z,9.27
2018-12-17T19:21:25.753Z,7.60
2018-12-17T19:23:54.334Z,9.27
2018-12-17T19:26:22.949Z,9.00
2018-12-17T19:29:08.681Z,8.67
2018-12-17T19:31:37.539Z,8.57
2018-12-17T19:34:06.275Z,9.07
2018-12-17T19:36:34.982Z,9.50
2018-12-17T19:39:05.618Z,10.37
2018-12-17T19:41:34.342Z,10.20
2018-12-17T19:44:03.078Z,9.33
2018-12-17T19:46:31.914Z,9.47
2018-12-17T19:49:00.784Z,8.77
2018-12-17T19:51:29.649Z,9.13
2018-12-17T19:53:57.941Z,9.47
2018-12-17T19:56:26.474Z,9.00
2018-12-17T19:58:54.974Z,9.03
2018-12-17T20:01:24.350Z,9.43
2018-12-17T20:03:52.917Z,10.07
2018-12-17T20:06:21.658Z,9.80
2018-12-17T20:08:53.065Z,9.97
2018-12-17T20:11:21.831Z,9.80
2018-12-17T20:13:50.509Z,10.63
2018-12-17T20:16:19.439Z,10.47
2018-12-17T20:18:48.131Z,9.90
2018-12-17T20:21:17.150Z,12.13
2018-12-17T20:23:45.931Z,12.97
2018-12-17T20:26:15.613Z,13.90
2018-12-17T20:28:44.271Z,11.40
2018-12-17T20:31:12.969Z,11.67
2018-12-17T20:33:41.669Z,17.23
2018-12-17T20:36:10.114Z,13.40
2018-12-17T20:38:38.816Z,12.83
2018-12-17T20:41:07.316Z,12.23
2018-12-17T20:43:35.965Z,12.63
2018-12-17T20:46:04.680Z,12.90
2018-12-17T20:48:33.573Z,12.17
2018-12-17T20:51:02.015Z,12.40
2018-12-17T20:53:30.506Z,12.47
2018-12-17T20:55:59.006Z,13.23
2018-12-17T21:05:12.617Z,13.17
2018-12-17T21:07:41.269Z,13.70
2018-12-17T21:10:09.944Z,13.47
2018-12-17T21:12:39.371Z,13.83
2018-12-17T21:15:08.825Z,14.20
2018-12-17T21:17:38.045Z,15.13
2018-12-17T21:20:07.094Z,14.97
2018-12-17T21:22:35.614Z,14.60
2018-12-17T21:25:04.886Z,14.33
2018-12-17T21:27:33.514Z,14.23
2018-12-17T21:30:02.083Z,14.97
2018-12-17T21:32:30.559Z,14.30
2018-12-17T21:34:59.056Z,14.23
2018-12-17T21:37:27.529Z,13.43
2018-12-17T21:39:56.011Z,13.77
2018-12-17T21:42:24.852Z,12.53
2018-12-17T21:44:53.581Z,13.07
2018-12-17T21:47:22.271Z,12.17
2018-12-17T21:49:50.981Z,11.87
2018-12-17T21:52:19.872Z,11.77
2018-12-17T21:54:48.531Z,11.53
2018-12-17T21:57:17.106Z,11.33
2018-12-17T21:59:45.693Z,12.07
2018-12-17T22:02:14.153Z,11.30
2018-12-17T22:04:45.001Z,11.27
2018-12-17T22:07:13.591Z,10.30
2018-12-17T22:09:41.847Z,10.67
2018-12-17T22:12:10.596Z,11.00
2018-12-17T22:14:39.456Z,10.53
2018-12-17T22:17:08.124Z,10.23
2018-12-17T22:19:36.618Z,9.40
2018-12-17T22:22:05.079Z,9.50
2018-12-17T22:24:33.756Z,9.20
2018-12-17T22:27:02.694Z,8.57
2018-12-17T22:29:31.130Z,8.63
2018-12-17T22:31:59.825Z,8.90
2018-12-17T22:34:28.535Z,8.13
2018-12-17T22:36:56.993Z,8.27
2018-12-17T22:39:25.696Z,8.50
2018-12-17T22:41:54.211Z,8.43
2018-12-17T22:44:23.048Z,8.43
2018-12-17T22:46:51.520Z,8.83
2018-12-17T22:49:20.256Z,8.80
2018-12-17T22:51:48.689Z,8.10
2018-12-17T22:54:17.379Z,8.10
2018-12-17T22:56:45.892Z,9.10
2018-12-17T22:59:14.548Z,8.40
2018-12-17T23:01:42.898Z,8.47
2018-12-17T23:04:11.524Z,8.90
2018-12-17T23:06:39.980Z,8.93
2018-12-17T23:09:07.828Z,8.57
2018-12-17T23:11:54.542Z,7.90
2018-12-17T23:14:34.268Z,7.80
2018-12-17T23:17:13.844Z,8.10
2018-12-17T23:19:44.343Z,7.73
2018-12-17T23:22:15.001Z,8.20
2018-12-17T23:24:45.041Z,7.70
2018-12-17T23:27:13.128Z,7.67
2018-12-17T23:29:41.135Z,7.87
2018-12-17T23:32:09.116Z,8.17
2018-12-17T23:34:37.424Z,7.83
2018-12-17T23:37:06.237Z,8.50
2018-12-17T23:39:34.212Z,7.80
2018-12-17T23:42:02.969Z,7.57
2018-12-17T23:44:35.469Z,8.27
2018-12-17T23:47:04.015Z,7.97
2018-12-17T23:49:32.504Z,7.67
2018-12-17T23:52:00.980Z,7.33
2018-12-17T23:54:29.441Z,7.70
2018-12-17T23:56:58.160Z,7.97
2018-12-17T23:59:26.832Z,7.80
